Time;durP1;ratioP1;P1;durP2;ratioP2;P2;SDS_P1;SDS_P2;PMS_P1;PMS_P2;Temp;Humidity;BMP_temperature;BMP_pressure;BME280_temperature;BME280_humidity;BME280_pressure;Samples;Min_cycle;Max_cycle;Signal;HPM_P1;HPM_P2
2023/05/15 00:01:40;;;;;;;1.83;1.60;;;;;;;;;;5142049;27;20202;-63
2023/05/15 00:04:07;;;;;;;1.80;1.70;;;;;;;;;;5141458;27;20206;-64
2023/05/15 00:06:35;;;;;;;1.80;1.70;;;;;;;;;;5141775;27;20222;-63
2023/05/15 00:09:02;;;;;;;1.88;1.77;;;;;;;;;;5141708;27;20203;-64
2023/05/15 00:11:30;;;;;;;1.80;1.70;;;;;;;;;;5142401;27;20343;-64
2023/05/15 00:13:57;;;;;;;1.60;1.50;;;;;;;;;;5142417;27;20238;-63
2023/05/15 00:16:25;;;;;;;1.80;1.70;;;;;;;;;;5141399;27;20332;-64
2023/05/15 00:18:54;;;;;;;1.52;1.42;;;;;;;;;;5141736;27;20234;-64
2023/05/15 00:21:22;;;;;;;1.70;1.60;;;;;;;;;;5141394;27;20209;-64
2023/05/15 00:23:52;;;;;;;1.95;1.85;;;;;;;;;;5141132;27;20241;-63
2023/05/15 00:26:20;;;;;;;1.70;1.60;;;;;;;;;;5141368;27;20277;-64
2023/05/15 00:28:47;;;;;;;1.65;1.55;;;;;;;;;;5141743;27;20209;-63
2023/05/15 00:31:15;;;;;;;1.77;1.67;;;;;;;;;;5141131;27;20289;-63
2023/05/15 00:33:43;;;;;;;1.83;1.73;;;;;;;;;;5141591;27;20210;-64
2023/05/15 00:36:12;;;;;;;1.60;1.50;;;;;;;;;;5140934;27;20225;-64
2023/05/15 00:38:39;;;;;;;1.95;1.70;;;;;;;;;;5140919;27;20202;-64
2023/05/15 00:41:07;;;;;;;1.70;1.60;;;;;;;;;;5141501;27;20202;-64
2023/05/15 00:43:35;;;;;;;1.70;1.60;;;;;;;;;;5140755;27;20201;-64
2023/05/15 00:46:03;;;;;;;1.80;1.70;;;;;;;;;;5140573;27;20234;-64
2023/05/15 00:48:32;;;;;;;1.80;1.70;;;;;;;;;;5140806;27;20325;-64
2023/05/15 00:51:00;;;;;;;1.80;1.70;;;;;;;;;;5141192;27;20245;-63
2023/05/15 00:53:29;;;;;;;1.70;1.60;;;;;;;;;;5140987;27;20217;-63
2023/05/15 00:55:58;;;;;;;1.63;1.52;;;;;;;;;;5140844;27;20218;-65
2023/05/15 00:58:27;;;;;;;1.60;1.50;;;;;;;;;;5140794;27;20493;-64
2023/05/15 01:00:55;;;;;;;1.85;1.75;;;;;;;;;;5140945;27;20296;-63
2023/05/15 01:03:23;;;;;;;1.80;1.70;;;;;;;;;;5140657;27;20217;-63
2023/05/15 01:05:50;;;;;;;1.95;1.70;;;;;;;;;;5140303;27;20206;-64
2023/05/15 01:08:21;;;;;;;1.58;1.48;;;;;;;;;;5140794;27;20645;-64
2023/05/15 01:10:51;;;;;;;1.73;1.63;;;;;;;;;;5140600;27;20494;-63
2023/05/15 01:13:20;;;;;;;1.80;1.70;;;;;;;;;;5140631;27;20597;-64
2023/05/15 01:15:48;;;;;;;2.17;1.95;;;;;;;;;;5140380;27;20248;-64
2023/05/15 01:18:16;;;;;;;1.45;1.35;;;;;;;;;;5140240;27;20198;-64
2023/05/15 01:20:48;;;;;;;1.73;1.63;;;;;;;;;;5140655;27;20289;-64
2023/05/15 01:23:18;;;;;;;1.85;1.75;;;;;;;;;;5140083;27;20300;-64
2023/05/15 01:25:58;;;;;;;1.80;1.70;;;;;;;;;;5140714;27;20546;-64
2023/05/15 01:28:29;;;;;;;1.88;1.77;;;;;;;;;;5140411;27;20226;-64
2023/05/15 01:30:57;;;;;;;1.50;1.40;;;;;;;;;;5140597;27;20202;-64
2023/05/15 01:33:26;;;;;;;1.70;1.60;;;;;;;;;;5140067;27;20203;-64
2023/05/15 01:36:00;;;;;;;1.60;1.50;;;;;;;;;;5140357;27;20202;-64
2023/05/15 01:38:31;;;;;;;1.60;1.50;;;;;;;;;;5140023;27;20474;-64
2023/05/15 01:41:03;;;;;;;1.70;1.60;;;;;;;;;;5140189;27;20574;-64
2023/05/15 01:43:33;;;;;;;1.60;1.50;;;;;;;;;;5139673;27;20206;-64
2023/05/15 01:46:00;;;;;;;1.92;1.83;;;;;;;;;;5140000;27;20223;-64
2023/05/15 01:48:29;;;;;;;1.80;1.70;;;;;;;;;;5140184;27;20312;-64
2023/05/15 01:50:58;;;;;;;1.60;1.50;;;;;;;;;;5139612;27;20202;-64
2023/05/15 01:53:27;;;;;;;1.50;1.40;;;;;;;;;;5139745;27;20663;-64
2023/05/15 01:55:55;;;;;;;1.80;1.70;;;;;;;;;;5139542;27;20210;-64
2023/05/15 01:58:23;;;;;;;1.90;1.80;;;;;;;;;;5139635;27;20199;-64
2023/05/15 02:00:53;;;;;;;1.60;1.50;;;;;;;;;;5139694;27;20213;-64
2023/05/15 02:03:21;;;;;;;1.80;1.70;;;;;;;;;;5139864;27;20202;-63
2023/05/15 02:05:49;;;;;;;1.65;1.55;;;;;;;;;;5139449;27;20198;-64
2023/05/15 02:08:16;;;;;;;1.73;1.63;;;;;;;;;;5139695;27;20271;-64
2023/05/15 02:10:45;;;;;;;1.70;1.60;;;;;;;;;;5139457;27;20233;-64
2023/05/15 02:13:12;;;;;;;1.73;1.63;;;;;;;;;;5139234;27;20194;-64
2023/05/15 02:15:40;;;;;;;1.80;1.70;;;;;;;;;;5139429;27;20550;-64
2023/05/15 02:18:10;;;;;;;1.70;1.60;;;;;;;;;;5139426;27;20300;-64
2023/05/15 02:20:37;;;;;;;1.50;1.40;;;;;;;;;;5139385;27;20202;-64
2023/05/15 02:23:05;;;;;;;1.73;1.63;;;;;;;;;;5139397;27;20552;-64
2023/05/15 02:25:35;;;;;;;1.55;1.45;;;;;;;;;;5139242;27;20210;-64
2023/05/15 02:28:05;;;;;;;1.73;1.63;;;;;;;;;;5139175;27;20611;-64
2023/05/15 02:30:36;;;;;;;1.80;1.70;;;;;;;;;;5138964;27;20224;-63
2023/05/15 02:33:09;;;;;;;1.58;1.48;;;;;;;;;;5138882;27;20212;-63
2023/05/15 02:35:42;;;;;;;1.55;1.45;;;;;;;;;;5139351;27;20479;-64
2023/05/15 02:38:12;;;;;;;1.70;1.60;;;;;;;;;;5138497;27;20248;-63
2023/05/15 02:40:40;;;;;;;1.70;1.60;;;;;;;;;;5138992;27;20209;-65
2023/05/15 02:43:09;;;;;;;1.52;1.42;;;;;;;;;;5139006;27;20202;-64
2023/05/15 02:45:37;;;;;;;1.80;1.70;;;;;;;;;;5139169;27;20218;-64
2023/05/15 02:48:06;;;;;;;1.58;1.48;;;;;;;;;;5138822;27;20281;-64
2023/05/15 02:50:34;;;;;;;1.90;1.80;;;;;;;;;;5139058;27;20202;-63
2023/05/15 02:53:08;;;;;;;1.73;1.63;;;;;;;;;;5138716;27;20228;-64
2023/05/15 02:55:36;;;;;;;1.60;1.50;;;;;;;;;;5138255;27;20212;-63
2023/05/15 02:58:04;;;;;;;1.60;1.50;;;;;;;;;;5139097;27;20198;-64
2023/05/15 03:00:32;;;;;;;1.80;1.70;;;;;;;;;;5138792;28;20651;-64
2023/05/15 03:03:00;;;;;;;1.60;1.50;;;;;;;;;;5138876;27;20297;-63
2023/05/15 03:05:28;;;;;;;1.60;1.50;;;;;;;;;;5138846;27;20604;-65
2023/05/15 03:07:56;;;;;;;1.58;1.48;;;;;;;;;;5138290;28;20222;-64
2023/05/15 03:10:25;;;;;;;1.70;1.60;;;;;;;;;;5138473;27;20264;-63
2023/05/15 03:12:53;;;;;;;1.67;1.58;;;;;;;;;;5138229;27;20453;-63
2023/05/15 03:15:20;;;;;;;1.55;1.45;;;;;;;;;;5138361;27;20202;-63
2023/05/15 03:17:48;;;;;;;1.45;1.30;;;;;;;;;;5138213;27;20578;-63
2023/05/15 03:20:16;;;;;;;1.60;1.50;;;;;;;;;;5137980;28;20210;-64
2023/05/15 03:22:44;;;;;;;1.60;1.50;;;;;;;;;;5138283;27;20482;-64
2023/05/15 03:25:12;;;;;;;1.40;1.30;;;;;;;;;;5138147;27;20293;-64
2023/05/15 03:27:41;;;;;;;2.22;1.55;;;;;;;;;;5139190;27;20230;-63
2023/05/15 03:30:10;;;;;;;1.50;1.40;;;;;;;;;;5142640;27;20234;-64
2023/05/15 03:32:37;;;;;;;1.67;1.50;;;;;;;;;;5142808;27;20202;-64
2023/05/15 03:35:05;;;;;;;1.77;1.67;;;;;;;;;;5142391;27;20202;-64
2023/05/15 03:37:33;;;;;;;1.70;1.60;;;;;;;;;;5142051;27;20226;-64
2023/05/15 03:40:00;;;;;;;1.63;1.52;;;;;;;;;;5142055;27;20202;-64
2023/05/15 03:42:28;;;;;;;1.67;1.58;;;;;;;;;;5142046;27;20202;-65
2023/05/15 03:44:57;;;;;;;1.60;1.50;;;;;;;;;;5141509;27;20206;-65
2023/05/15 03:47:24;;;;;;;1.80;1.70;;;;;;;;;;5141172;27;20217;-64
2023/05/15 03:49:51;;;;;;;1.65;1.55;;;;;;;;;;5141426;27;20644;-64
2023/05/15 03:52:19;;;;;;;1.40;1.30;;;;;;;;;;5141532;27;20194;-65
2023/05/15 03:54:46;;;;;;;1.65;1.55;;;;;;;;;;5141300;27;20202;-64
2023/05/15 03:57:13;;;;;;;1.67;1.58;;;;;;;;;;5141264;27;20463;-64
2023/05/15 03:59:41;;;;;;;1.80;1.70;;;;;;;;;;5141237;27;20205;-65
2023/05/15 04:02:10;;;;;;;1.58;1.48;;;;;;;;;;5141563;27;20573;-64
2023/05/15 04:04:37;;;;;;;2.08;1.98;;;;;;;;;;5141461;27;20824;-65
2023/05/15 04:07:05;;;;;;;1.60;1.50;;;;;;;;;;5141293;27;20643;-64
2023/05/15 04:09:32;;;;;;;1.67;1.58;;;;;;;;;;5141373;27;20233;-64
2023/05/15 04:12:00;;;;;;;1.75;1.65;;;;;;;;;;5141147;27;20202;-64
2023/05/15 04:14:27;;;;;;;1.65;1.55;;;;;;;;;;5140758;27;20197;-64
2023/05/15 04:16:54;;;;;;;1.65;1.55;;;;;;;;;;5141404;27;20313;-64
2023/05/15 04:19:23;;;;;;;1.60;1.50;;;;;;;;;;5141240;27;20199;-64
2023/05/15 04:21:50;;;;;;;1.60;1.50;;;;;;;;;;5140538;27;20209;-64
2023/05/15 04:24:18;;;;;;;1.63;1.52;;;;;;;;;;5140836;27;20209;-64
2023/05/15 04:26:45;;;;;;;1.48;1.38;;;;;;;;;;5140187;27;20270;-64
2023/05/15 04:29:12;;;;;;;1.42;1.33;;;;;;;;;;5140856;27;20230;-64
2023/05/15 04:31:39;;;;;;;1.70;1.60;;;;;;;;;;5140086;27;20202;-64
2023/05/15 04:34:07;;;;;;;1.40;1.30;;;;;;;;;;5140243;27;20485;-64
2023/05/15 04:36:36;;;;;;;1.48;1.38;;;;;;;;;;5140032;27;20213;-64
2023/05/15 04:39:03;;;;;;;1.55;1.45;;;;;;;;;;5138855;27;20478;-65
2023/05/15 04:41:32;;;;;;;1.55;1.45;;;;;;;;;;5139477;27;20209;-63
2023/05/15 04:43:59;;;;;;;1.65;1.55;;;;;;;;;;5139729;27;20202;-64
2023/05/15 04:46:28;;;;;;;1.50;1.40;;;;;;;;;;5139203;27;20202;-64
2023/05/15 04:48:55;;;;;;;1.88;1.77;;;;;;;;;;5138888;27;20241;-64
2023/05/15 04:51:22;;;;;;;1.67;1.58;;;;;;;;;;5139437;27;20213;-64
2023/05/15 04:53:51;;;;;;;1.70;1.60;;;;;;;;;;5139122;27;20202;-64
2023/05/15 04:56:20;;;;;;;1.60;1.50;;;;;;;;;;5138833;27;20229;-63
2023/05/15 04:58:47;;;;;;;1.50;1.40;;;;;;;;;;5138548;27;20503;-63
2023/05/15 05:01:14;;;;;;;1.30;1.20;;;;;;;;;;5137761;27;20202;-64
2023/05/15 05:03:42;;;;;;;1.60;1.50;;;;;;;;;;5137872;27;20209;-66
2023/05/15 05:06:10;;;;;;;1.50;1.40;;;;;;;;;;5138033;27;20212;-64
2023/05/15 05:08:38;;;;;;;1.67;1.58;;;;;;;;;;5137555;27;20269;-64
2023/05/15 05:11:07;;;;;;;1.48;1.27;;;;;;;;;;5137533;27;20590;-63
2023/05/15 05:13:34;;;;;;;1.80;1.70;;;;;;;;;;5138393;27;20209;-64
2023/05/15 05:16:02;;;;;;;2.13;1.88;;;;;;;;;;5137044;27;20205;-65
2023/05/15 05:18:30;;;;;;;2.97;2.03;;;;;;;;;;5137225;27;20210;-64
2023/05/15 05:21:01;;;;;;;2.38;2.17;;;;;;;;;;5137285;27;20202;-64
2023/05/15 05:23:34;;;;;;;3.42;2.08;;;;;;;;;;5137385;27;20202;-64
2023/05/15 05:26:03;;;;;;;3.70;2.70;;;;;;;;;;5135381;27;20201;-64
2023/05/15 05:28:33;;;;;;;5.82;2.78;;;;;;;;;;5135870;27;20526;-65
2023/05/15 05:31:01;;;;;;;5.80;3.20;;;;;;;;;;5117429;28;20234;-64
2023/05/15 05:33:28;;;;;;;4.60;3.13;;;;;;;;;;5117282;28;20207;-64
2023/05/15 05:35:56;;;;;;;6.00;3.05;;;;;;;;;;5116528;28;20203;-64
2023/05/15 05:38:25;;;;;;;4.95;3.25;;;;;;;;;;5116766;28;20214;-64
2023/05/15 05:40:53;;;;;;;7.75;3.58;;;;;;;;;;5129257;27;20209;-64
2023/05/15 05:43:20;;;;;;;8.35;3.50;;;;;;;;;;5136667;27;20209;-64
2023/05/15 05:45:49;;;;;;;8.80;4.25;;;;;;;;;;5136021;27;20233;-64
2023/05/15 05:48:17;;;;;;;9.25;4.43;;;;;;;;;;5136366;27;20222;-64
2023/05/15 05:50:44;;;;;;;9.75;4.55;;;;;;;;;;5136094;27;20595;-65
2023/05/15 05:53:11;;;;;;;9.02;4.25;;;;;;;;;;5136642;27;20198;-64
2023/05/15 05:55:39;;;;;;;11.75;4.45;;;;;;;;;;5136479;27;20213;-64
2023/05/15 05:58:06;;;;;;;8.38;4.15;;;;;;;;;;5137071;27;20220;-64
2023/05/15 06:00:34;;;;;;;6.20;3.85;;;;;;;;;;5136445;27;20225;-65
2023/05/15 06:03:02;;;;;;;9.93;4.10;;;;;;;;;;5137264;27;20594;-64
2023/05/15 06:05:30;;;;;;;7.72;3.85;;;;;;;;;;5136946;27;20622;-65
2023/05/15 06:07:58;;;;;;;8.57;4.45;;;;;;;;;;5137313;27;20233;-64
2023/05/15 06:10:26;;;;;;;7.00;4.35;;;;;;;;;;5136886;27;20721;-64
2023/05/15 06:12:53;;;;;;;8.45;4.32;;;;;;;;;;5137112;27;20213;-64
2023/05/15 06:15:21;;;;;;;9.70;4.45;;;;;;;;;;5137143;27;20234;-64
2023/05/15 06:17:48;;;;;;;10.50;4.30;;;;;;;;;;5137664;27;20209;-66
2023/05/15 06:20:17;;;;;;;7.70;4.18;;;;;;;;;;5136389;27;20204;-64
2023/05/15 06:22:44;;;;;;;8.07;4.13;;;;;;;;;;5136927;27;20741;-64
2023/05/15 06:25:13;;;;;;;8.75;4.32;;;;;;;;;;5136674;27;20205;-64
2023/05/15 06:27:41;;;;;;;7.97;4.28;;;;;;;;;;5136947;27;20236;-64
2023/05/15 06:30:09;;;;;;;9.38;4.28;;;;;;;;;;5136713;27;20224;-63
2023/05/15 06:32:36;;;;;;;7.95;4.20;;;;;;;;;;5137446;27;20739;-64
2023/05/15 06:35:04;;;;;;;9.02;4.75;;;;;;;;;;5136762;27;20206;-65
2023/05/15 06:37:32;;;;;;;7.95;4.07;;;;;;;;;;5136108;27;20489;-64
2023/05/15 06:40:00;;;;;;;7.53;4.38;;;;;;;;;;5136425;27;20210;-65
2023/05/15 06:42:27;;;;;;;7.28;3.92;;;;;;;;;;5136241;27;20699;-64
2023/05/15 06:44:55;;;;;;;9.45;4.07;;;;;;;;;;5136792;27;20487;-65
2023/05/15 06:47:22;;;;;;;9.27;4.13;;;;;;;;;;5136452;27;20217;-64
2023/05/15 06:49:50;;;;;;;7.65;4.00;;;;;;;;;;5136498;27;20291;-64
2023/05/15 06:52:17;;;;;;;7.88;4.20;;;;;;;;;;5135926;27;20217;-64
2023/05/15 06:54:47;;;;;;;6.88;4.18;;;;;;;;;;5136870;27;20739;-64
2023/05/15 06:57:14;;;;;;;9.60;4.25;;;;;;;;;;5136543;27;20255;-64
2023/05/15 06:59:41;;;;;;;5.97;3.67;;;;;;;;;;5136847;27;20305;-64
2023/05/15 07:02:09;;;;;;;7.03;4.03;;;;;;;;;;5136174;27;20575;-65
2023/05/15 07:04:36;;;;;;;6.93;4.60;;;;;;;;;;5140924;27;20210;-65
2023/05/15 07:07:03;;;;;;;7.88;4.20;;;;;;;;;;5140634;27;20749;-64
2023/05/15 07:09:31;;;;;;;6.80;4.13;;;;;;;;;;5140655;27;20636;-65
2023/05/15 07:12:00;;;;;;;7.65;4.30;;;;;;;;;;5140729;27;20209;-65
2023/05/15 07:14:27;;;;;;;7.50;4.32;;;;;;;;;;5141535;27;20213;-65
2023/05/15 07:16:55;;;;;;;7.63;4.07;;;;;;;;;;5141129;27;20202;-65
2023/05/15 07:19:22;;;;;;;5.70;3.97;;;;;;;;;;5140210;27;20574;-65
2023/05/15 07:21:50;;;;;;;5.68;3.80;;;;;;;;;;5141083;27;20204;-65
2023/05/15 07:24:17;;;;;;;6.25;4.22;;;;;;;;;;5139984;27;20221;-65
2023/05/15 07:26:44;;;;;;;7.00;4.15;;;;;;;;;;5139667;27;20233;-65
2023/05/15 07:29:13;;;;;;;8.63;4.85;;;;;;;;;;5140121;27;20222;-65
2023/05/15 07:31:43;;;;;;;5.50;3.90;;;;;;;;;;5139923;27;20575;-66
2023/05/15 07:34:10;;;;;;;6.00;4.57;;;;;;;;;;5139378;27;20202;-65
2023/05/15 07:36:38;;;;;;;6.35;4.05;;;;;;;;;;5139475;27;20213;-64
2023/05/15 07:39:06;;;;;;;5.70;4.18;;;;;;;;;;5140519;27;20221;-65
2023/05/15 07:41:33;;;;;;;5.57;4.00;;;;;;;;;;5140068;27;20198;-65
2023/05/15 07:44:00;;;;;;;5.70;4.28;;;;;;;;;;5139576;27;20468;-64
2023/05/15 07:46:29;;;;;;;5.47;4.05;;;;;;;;;;5138637;27;20207;-65
2023/05/15 07:48:57;;;;;;;6.03;4.10;;;;;;;;;;5140074;27;20496;-64
2023/05/15 07:51:24;;;;;;;6.32;4.93;;;;;;;;;;5139790;27;20492;-64
2023/05/15 07:53:51;;;;;;;4.60;3.67;;;;;;;;;;5139203;27;20208;-66
2023/05/15 07:56:19;;;;;;;6.35;3.70;;;;;;;;;;5139646;27;20198;-66
2023/05/15 07:58:46;;;;;;;6.28;4.30;;;;;;;;;;5139189;27;20213;-65
2023/05/15 08:01:13;;;;;;;5.25;4.30;;;;;;;;;;5139283;27;20202;-64
2023/05/15 08:03:42;;;;;;;4.95;3.80;;;;;;;;;;5139338;27;20231;-64
2023/05/15 08:06:10;;;;;;;4.93;3.90;;;;;;;;;;5139177;27;20202;-64
2023/05/15 08:08:37;;;;;;;5.93;4.10;;;;;;;;;;5138743;27;20500;-64
2023/05/15 08:11:04;;;;;;;6.10;4.05;;;;;;;;;;5139216;27;20206;-65
2023/05/15 08:13:32;;;;;;;4.88;3.88;;;;;;;;;;5139062;27;20291;-65
2023/05/15 08:15:59;;;;;;;5.35;4.18;;;;;;;;;;5139010;27;20214;-64
2023/05/15 08:18:26;;;;;;;4.68;3.70;;;;;;;;;;5138888;27;20520;-65
2023/05/15 08:20:55;;;;;;;4.40;3.75;;;;;;;;;;5138334;27;20209;-65
2023/05/15 08:23:22;;;;;;;5.50;4.20;;;;;;;;;;5139129;27;20203;-64
2023/05/15 08:25:50;;;;;;;7.00;4.10;;;;;;;;;;5139563;27;20474;-65
2023/05/15 08:28:17;;;;;;;5.53;4.20;;;;;;;;;;5139623;27;20209;-65
2023/05/15 08:30:45;;;;;;;5.18;3.80;;;;;;;;;;5139120;27;20452;-66
2023/05/15 08:33:12;;;;;;;4.85;3.47;;;;;;;;;;5138714;27;20225;-65
2023/05/15 08:35:39;;;;;;;4.10;3.38;;;;;;;;;;5138866;27;20205;-65
2023/05/15 08:38:08;;;;;;;6.22;4.18;;;;;;;;;;5137765;27;20497;-65
2023/05/15 08:40:35;;;;;;;5.00;3.60;;;;;;;;;;5137608;27;20202;-64
2023/05/15 08:43:05;;;;;;;4.43;3.83;;;;;;;;;;5137393;27;20475;-65
2023/05/15 08:45:33;;;;;;;5.60;4.00;;;;;;;;;;5137008;27;20202;-66
2023/05/15 08:48:01;;;;;;;4.35;3.95;;;;;;;;;;5138619;27;20202;-65
2023/05/15 08:50:29;;;;;;;3.88;3.47;;;;;;;;;;5137778;27;20217;-65
2023/05/15 08:52:59;;;;;;;3.65;3.35;;;;;;;;;;5137906;27;20202;-65
2023/05/15 08:55:28;;;;;;;3.95;3.55;;;;;;;;;;5138393;27;20214;-66
2023/05/15 08:57:56;;;;;;;3.70;3.40;;;;;;;;;;5137267;27;20203;-65
2023/05/15 09:00:23;;;;;;;4.88;3.90;;;;;;;;;;5138562;27;20593;-64
2023/05/15 09:02:51;;;;;;;4.47;3.88;;;;;;;;;;5137529;27;20209;-64
2023/05/15 09:05:18;;;;;;;3.78;3.47;;;;;;;;;;5137016;27;20831;-65
2023/05/15 09:07:46;;;;;;;4.38;3.83;;;;;;;;;;5137822;27;20202;-65
2023/05/15 09:10:14;;;;;;;4.25;3.85;;;;;;;;;;5137688;27;20222;-65
2023/05/15 09:12:44;;;;;;;4.90;3.75;;;;;;;;;;5138502;27;20305;-65
2023/05/15 09:15:12;;;;;;;4.03;3.60;;;;;;;;;;5137775;27;20210;-66
2023/05/15 09:17:41;;;;;;;3.60;3.30;;;;;;;;;;5137896;27;20532;-65
2023/05/15 09:20:25;;;;;;;3.95;3.60;;;;;;;;;;5136874;27;20206;-65
2023/05/15 09:22:52;;;;;;;3.97;3.63;;;;;;;;;;5136851;27;20305;-65
2023/05/15 09:25:33;;;;;;;4.88;3.70;;;;;;;;;;5136503;27;20199;-65
2023/05/15 09:28:02;;;;;;;4.55;3.47;;;;;;;;;;5136141;27;20294;-65
2023/05/15 09:30:30;;;;;;;4.50;4.10;;;;;;;;;;5136719;27;20218;-64
2023/05/15 09:32:57;;;;;;;4.22;3.75;;;;;;;;;;5137425;27;20202;-65
2023/05/15 09:35:34;;;;;;;3.78;3.47;;;;;;;;;;5137351;27;20199;-65
2023/05/15 09:38:03;;;;;;;3.97;3.63;;;;;;;;;;5137052;27;20194;-64
2023/05/15 09:40:30;;;;;;;3.97;3.65;;;;;;;;;;5136835;27;20198;-64
2023/05/15 09:42:58;;;;;;;4.38;3.50;;;;;;;;;;5136699;27;20203;-65
2023/05/15 09:45:28;;;;;;;4.03;3.55;;;;;;;;;;5137206;27;20224;-66
2023/05/15 09:47:56;;;;;;;4.15;3.75;;;;;;;;;;5137065;27;20554;-65
2023/05/15 09:50:24;;;;;;;4.30;3.90;;;;;;;;;;5137051;27;20710;-64
2023/05/15 09:52:52;;;;;;;3.80;3.50;;;;;;;;;;5138050;27;20202;-64
2023/05/15 09:55:20;;;;;;;3.85;3.53;;;;;;;;;;5136937;27;20578;-65
2023/05/15 09:58:05;;;;;;;3.45;3.15;;;;;;;;;;5136727;27;20213;-65
2023/05/15 10:00:34;;;;;;;4.05;3.63;;;;;;;;;;5136857;27;20224;-65
2023/05/15 10:03:02;;;;;;;3.70;3.35;;;;;;;;;;5137674;27;20202;-65
2023/05/15 10:05:30;;;;;;;3.58;3.28;;;;;;;;;;5136339;27;20716;-64
2023/05/15 10:07:58;;;;;;;3.65;3.35;;;;;;;;;;5136732;27;20229;-65
2023/05/15 10:10:25;;;;;;;3.50;3.30;;;;;;;;;;5136445;27;20237;-64
2023/05/15 10:12:53;;;;;;;3.38;3.08;;;;;;;;;;5136783;27;20577;-65
2023/05/15 10:15:22;;;;;;;3.40;3.10;;;;;;;;;;5136208;27;20213;-66
2023/05/15 10:17:51;;;;;;;3.20;2.90;;;;;;;;;;5135391;27;20216;-65
2023/05/15 10:20:21;;;;;;;3.78;3.28;;;;;;;;;;5136508;27;20190;-64
2023/05/15 10:22:49;;;;;;;3.55;3.25;;;;;;;;;;5136127;27;20209;-64
2023/05/15 10:25:17;;;;;;;3.65;3.35;;;;;;;;;;5135090;27;20585;-65
2023/05/15 10:27:47;;;;;;;3.45;3.20;;;;;;;;;;5135363;27;20298;-64
2023/05/15 10:30:16;;;;;;;3.60;3.30;;;;;;;;;;5135101;27;20228;-64
2023/05/15 10:32:43;;;;;;;3.83;3.53;;;;;;;;;;5135099;27;20202;-65
2023/05/15 10:35:12;;;;;;;3.50;3.20;;;;;;;;;;5134840;27;20195;-64
2023/05/15 10:37:40;;;;;;;3.42;3.13;;;;;;;;;;5134505;27;20573;-65
2023/05/15 10:40:09;;;;;;;3.67;3.38;;;;;;;;;;5135250;27;20234;-65
2023/05/15 10:42:37;;;;;;;3.85;3.53;;;;;;;;;;5135322;27;20278;-65
2023/05/15 10:45:06;;;;;;;3.47;3.17;;;;;;;;;;5135492;27;20212;-65
2023/05/15 10:47:34;;;;;;;3.72;3.42;;;;;;;;;;5134519;27;20237;-65
2023/05/15 10:50:01;;;;;;;3.47;3.20;;;;;;;;;;5134916;27;20229;-65
2023/05/15 10:52:32;;;;;;;3.63;3.33;;;;;;;;;;5134308;27;20631;-65
2023/05/15 10:54:59;;;;;;;3.22;3.03;;;;;;;;;;5135639;27;20208;-65
2023/05/15 10:57:29;;;;;;;3.80;3.50;;;;;;;;;;5134281;27;20217;-64
2023/05/15 10:59:57;;;;;;;3.30;3.10;;;;;;;;;;5135101;27;20538;-64
2023/05/15 11:02:30;;;;;;;3.40;3.10;;;;;;;;;;5135729;27;20209;-65
2023/05/15 11:05:00;;;;;;;3.72;3.42;;;;;;;;;;5135921;27;20242;-64
2023/05/15 11:07:28;;;;;;;3.70;3.40;;;;;;;;;;5134484;27;20245;-65
2023/05/15 11:09:57;;;;;;;3.72;3.42;;;;;;;;;;5134806;28;20501;-65
2023/05/15 11:12:25;;;;;;;3.53;3.33;;;;;;;;;;5134775;28;20214;-65
2023/05/15 11:15:11;;;;;;;3.40;3.10;;;;;;;;;;5135386;27;20213;-65
2023/05/15 11:17:38;;;;;;;3.47;3.17;;;;;;;;;;5135595;27;20297;-65
2023/05/15 11:20:06;;;;;;;3.22;3.03;;;;;;;;;;5134602;27;20198;-65
2023/05/15 11:22:34;;;;;;;3.50;3.30;;;;;;;;;;5134657;27;20508;-64
2023/05/15 11:25:05;;;;;;;3.40;3.20;;;;;;;;;;5135237;27;20194;-65
2023/05/15 11:27:33;;;;;;;3.45;3.15;;;;;;;;;;5135504;27;20234;-65
2023/05/15 11:30:04;;;;;;;3.40;3.20;;;;;;;;;;5135644;28;20214;-66
2023/05/15 11:32:32;;;;;;;3.33;3.13;;;;;;;;;;5135066;27;20198;-64
2023/05/15 11:35:01;;;;;;;3.20;3.00;;;;;;;;;;5135070;28;20234;-65
2023/05/15 11:37:28;;;;;;;3.35;3.15;;;;;;;;;;5135370;27;20619;-64
2023/05/15 11:39:56;;;;;;;3.50;3.20;;;;;;;;;;5135090;27;20753;-64
2023/05/15 11:42:25;;;;;;;3.13;2.92;;;;;;;;;;5134832;27;20198;-65
2023/05/15 11:44:53;;;;;;;3.60;3.40;;;;;;;;;;5134192;27;20205;-65
2023/05/15 11:47:21;;;;;;;3.65;3.45;;;;;;;;;;5134022;27;20202;-64
2023/05/15 11:49:49;;;;;;;3.25;3.05;;;;;;;;;;5136863;27;20210;-65
2023/05/15 11:52:16;;;;;;;3.35;3.15;;;;;;;;;;5137917;27;20589;-65
2023/05/15 11:54:44;;;;;;;3.53;3.33;;;;;;;;;;5138565;27;20378;-65
2023/05/15 11:57:12;;;;;;;3.53;3.33;;;;;;;;;;5138437;27;20204;-67
2023/05/15 11:59:41;;;;;;;3.58;3.30;;;;;;;;;;5139370;27;20225;-66
2023/05/15 12:02:08;;;;;;;3.60;3.40;;;;;;;;;;5137547;27;20202;-64
2023/05/15 12:04:36;;;;;;;3.65;3.45;;;;;;;;;;5138253;27;20246;-65
2023/05/15 12:07:04;;;;;;;3.70;3.40;;;;;;;;;;5139109;27;20217;-64
2023/05/15 12:09:31;;;;;;;3.13;2.92;;;;;;;;;;5137887;27;20229;-65
2023/05/15 12:11:58;;;;;;;3.10;2.90;;;;;;;;;;5138335;27;20597;-64
2023/05/15 12:14:29;;;;;;;3.50;3.30;;;;;;;;;;5138294;27;20202;-64
2023/05/15 12:17:01;;;;;;;3.40;3.20;;;;;;;;;;5137612;27;20206;-64
2023/05/15 12:19:29;;;;;;;3.65;3.35;;;;;;;;;;5138024;27;20247;-64
2023/05/15 12:21:56;;;;;;;3.80;3.50;;;;;;;;;;5138417;27;20318;-65
2023/05/15 12:24:23;;;;;;;3.38;3.17;;;;;;;;;;5136985;27;20578;-64
2023/05/15 12:26:51;;;;;;;3.80;3.55;;;;;;;;;;5136610;27;20226;-64
2023/05/15 12:29:18;;;;;;;3.50;3.20;;;;;;;;;;5138451;27;20206;-64
2023/05/15 12:31:46;;;;;;;3.80;3.50;;;;;;;;;;5138044;27;20218;-64
2023/05/15 12:34:15;;;;;;;3.40;3.13;;;;;;;;;;5138171;27;20206;-65
2023/05/15 12:36:42;;;;;;;3.50;3.20;;;;;;;;;;5138166;27;20198;-64
2023/05/15 12:39:11;;;;;;;3.63;3.38;;;;;;;;;;5137914;27;20606;-65
2023/05/15 12:41:39;;;;;;;3.40;3.20;;;;;;;;;;5137754;27;20205;-64
2023/05/15 12:44:07;;;;;;;3.80;3.50;;;;;;;;;;5138378;27;20202;-64
2023/05/15 12:46:34;;;;;;;3.80;3.50;;;;;;;;;;5138101;27;20613;-64
2023/05/15 12:49:03;;;;;;;3.47;3.28;;;;;;;;;;5137347;27;20301;-64
2023/05/15 12:51:31;;;;;;;3.58;3.38;;;;;;;;;;5137447;27;20503;-64
2023/05/15 12:53:59;;;;;;;3.78;3.47;;;;;;;;;;5136584;27;20199;-64
2023/05/15 12:56:26;;;;;;;4.13;3.72;;;;;;;;;;5137750;27;20194;-64
2023/05/15 12:58:54;;;;;;;3.90;3.60;;;;;;;;;;5138625;27;20202;-64
2023/05/15 13:01:22;;;;;;;3.45;3.22;;;;;;;;;;5136636;27;20221;-64
2023/05/15 13:03:49;;;;;;;3.55;3.33;;;;;;;;;;5136659;27;20202;-64
2023/05/15 13:06:17;;;;;;;3.60;3.30;;;;;;;;;;5137183;27;20210;-64
2023/05/15 13:08:45;;;;;;;3.63;3.42;;;;;;;;;;5137080;27;20574;-64
2023/05/15 13:11:13;;;;;;;4.80;3.63;;;;;;;;;;5136889;27;20226;-64
2023/05/15 13:13:45;;;;;;;3.40;3.20;;;;;;;;;;5137064;27;20209;-63
2023/05/15 13:16:19;;;;;;;3.58;3.38;;;;;;;;;;5137122;27;20194;-64
2023/05/15 13:18:46;;;;;;;4.03;3.63;;;;;;;;;;5136548;27;20204;-63
2023/05/15 13:21:13;;;;;;;3.70;3.40;;;;;;;;;;5135897;27;20279;-63
2023/05/15 13:23:41;;;;;;;3.50;3.20;;;;;;;;;;5136403;27;20198;-63
2023/05/15 13:26:09;;;;;;;3.90;3.60;;;;;;;;;;5134451;27;20242;-63
2023/05/15 13:28:37;;;;;;;3.88;3.58;;;;;;;;;;5115826;28;20767;-64
2023/05/15 13:31:04;;;;;;;3.72;3.30;;;;;;;;;;5116202;28;20226;-64
2023/05/15 13:33:32;;;;;;;3.88;3.58;;;;;;;;;;5116009;28;20454;-64
2023/05/15 13:36:00;;;;;;;3.65;3.35;;;;;;;;;;5115632;28;20195;-64
2023/05/15 13:38:27;;;;;;;3.72;3.47;;;;;;;;;;5115781;28;20207;-63
2023/05/15 13:40:55;;;;;;;4.30;3.80;;;;;;;;;;5115850;28;20191;-63
2023/05/15 13:43:23;;;;;;;3.60;3.30;;;;;;;;;;5115878;28;20485;-63
2023/05/15 13:45:51;;;;;;;4.47;3.53;;;;;;;;;;5115524;28;20210;-63
2023/05/15 13:48:18;;;;;;;3.58;3.30;;;;;;;;;;5116100;28;20567;-63
2023/05/15 13:50:45;;;;;;;3.42;3.22;;;;;;;;;;5115272;28;20216;-65
2023/05/15 13:53:15;;;;;;;3.45;3.22;;;;;;;;;;5115091;28;20199;-64
2023/05/15 13:55:44;;;;;;;3.85;3.55;;;;;;;;;;5114687;28;20290;-64
2023/05/15 13:58:11;;;;;;;3.58;3.30;;;;;;;;;;5115197;28;20264;-63
2023/05/15 14:00:41;;;;;;;3.80;3.60;;;;;;;;;;5116227;28;20211;-64
2023/05/15 14:03:08;;;;;;;3.72;3.50;;;;;;;;;;5115111;28;20207;-63
2023/05/15 14:05:36;;;;;;;3.65;3.45;;;;;;;;;;5115583;28;20195;-63
2023/05/15 14:08:03;;;;;;;3.50;3.30;;;;;;;;;;5114741;28;20199;-63
2023/05/15 14:10:30;;;;;;;3.20;3.00;;;;;;;;;;5115566;28;20567;-63
2023/05/15 14:12:58;;;;;;;3.60;3.40;;;;;;;;;;5115659;28;20528;-63
2023/05/15 14:15:25;;;;;;;3.40;3.20;;;;;;;;;;5114942;28;20199;-64
2023/05/15 14:17:54;;;;;;;3.30;3.10;;;;;;;;;;5115348;28;20540;-63
2023/05/15 14:20:21;;;;;;;4.10;3.80;;;;;;;;;;5114643;28;20195;-63
2023/05/15 14:22:49;;;;;;;3.53;3.33;;;;;;;;;;5115420;28;20206;-64
2023/05/15 14:25:16;;;;;;;3.60;3.40;;;;;;;;;;5114748;28;20203;-64
2023/05/15 14:27:43;;;;;;;3.63;3.42;;;;;;;;;;5131151;27;20241;-63
2023/05/15 14:30:11;;;;;;;3.50;3.30;;;;;;;;;;5135321;27;20202;-64
2023/05/15 14:32:38;;;;;;;3.72;3.42;;;;;;;;;;5134161;27;20276;-63
2023/05/15 14:35:08;;;;;;;3.35;3.15;;;;;;;;;;5134891;27;20221;-64
2023/05/15 14:37:35;;;;;;;3.38;3.17;;;;;;;;;;5134345;27;20208;-64
2023/05/15 14:40:03;;;;;;;3.40;3.17;;;;;;;;;;5134899;27;20202;-64
2023/05/15 14:42:30;;;;;;;3.42;3.20;;;;;;;;;;5134814;27;20202;-64
2023/05/15 14:44:58;;;;;;;3.50;3.30;;;;;;;;;;5135240;27;20202;-64
2023/05/15 14:47:27;;;;;;;3.35;3.15;;;;;;;;;;5134569;27;20198;-64
2023/05/15 14:49:54;;;;;;;3.55;3.35;;;;;;;;;;5135251;27;20194;-64